.
WxDataArchive / Data Records for 2009-09-27
2009-09-26 September 2009 2009-09-28

Data Records for Sunday, 27 September 2009

Time	Temp	Chill	HIndex	Humid	Dewpt	 Wind 	HiWind	WindDir	Rain 	Barom 
-----	----	-----	------	-----	-----	------	------	-------	-----	----- 
00:00	61.2	61.2	61.2	86	57.0	0	0	---	0.00	29.767 
00:05	61.2	61.2	61.2	87	57.3	0	1	292	0.00	29.767 
00:10	61.2	61.2	61.2	87	57.3	0	0	---	0.00	29.767 
00:15	61.0	61.0	61.0	87	57.1	0	1	292	0.00	29.761 
00:20	61.0	61.0	61.0	88	57.4	0	1	292	0.00	29.761 
00:25	60.9	60.9	60.9	88	57.3	0	0	---	0.00	29.761 
00:30	60.9	60.9	60.9	88	57.3	0	1	292	0.00	29.757 
00:35	60.7	60.7	60.7	88	57.1	0	0	---	0.00	29.757 
00:40	60.7	60.7	60.7	88	57.1	0	0	---	0.00	29.757 
00:45	60.5	60.5	60.5	89	57.2	0	0	---	0.00	29.751 
00:50	60.5	60.5	60.5	89	57.2	0	1	292	0.00	29.751 
00:55	60.5	60.5	60.5	89	57.2	0	0	---	0.00	29.751 
01:00	60.4	60.4	60.4	89	57.1	0	0	---	0.00	29.751 
01:05	60.4	60.4	60.4	89	57.1	0	0	---	0.00	29.751 
01:10	60.2	60.2	60.2	89	56.9	0	0	---	0.00	29.751 
01:15	60.1	60.1	60.1	90	57.2	0	0	---	0.00	29.742 
01:20	59.9	59.9	59.9	90	57.0	0	0	---	0.00	29.742 
01:25	59.9	59.9	59.9	90	57.0	0	0	---	0.00	29.742 
01:30	59.9	59.9	59.9	91	57.3	0	0	---	0.00	29.730 
01:35	59.8	59.8	59.8	91	57.2	0	0	---	0.00	29.730 
01:40	59.6	59.6	59.6	91	57.0	0	0	---	0.00	29.730 
01:45	59.6	59.6	59.6	91	57.0	0	0	---	0.00	29.728 
01:50	59.5	59.5	59.5	91	56.9	0	0	---	0.00	29.728 
01:55	59.5	59.5	59.5	91	56.9	0	0	---	0.00	29.728 
02:00	59.5	59.5	59.5	92	57.2	0	0	---	0.00	29.727 
02:05	59.3	59.3	59.3	92	57.0	0	0	---	0.00	29.727 
02:10	59.2	59.2	59.2	92	56.9	0	0	---	0.00	29.727 
02:15	59.0	59.0	59.0	92	56.7	0	0	---	0.00	29.731 
02:20	58.9	58.9	58.9	92	56.6	0	0	---	0.00	29.731 
02:25	58.9	58.9	58.9	92	56.6	0	0	---	0.00	29.731 
02:30	58.7	58.7	58.7	92	56.4	0	0	---	0.00	29.729 
02:35	58.6	58.6	58.6	92	56.3	0	0	---	0.00	29.729 
02:40	58.4	58.4	58.4	92	56.1	0	0	---	0.00	29.729 
02:45	58.4	58.4	58.4	92	56.1	0	0	---	0.00	29.729 
02:50	58.3	58.3	58.3	92	56.0	0	0	---	0.00	29.729 
02:55	58.1	58.1	58.1	92	55.8	0	0	---	0.00	29.729 
03:00	58.0	58.0	58.0	92	55.7	0	0	---	0.00	29.730 
03:05	58.0	58.0	58.0	92	55.7	0	0	---	0.00	29.730 
03:10	57.8	57.8	57.8	93	55.8	0	0	---	0.00	29.730 
03:15	57.6	57.6	57.6	93	55.6	0	0	---	0.00	29.729 
03:20	57.6	57.6	57.6	93	55.6	0	0	---	0.00	29.729 
03:25	57.5	57.5	57.5	93	55.5	0	0	---	0.00	29.729 
03:30	57.5	57.5	57.5	93	55.5	0	0	---	0.00	29.727 
03:35	57.3	57.3	57.3	93	55.3	0	0	---	0.00	29.727 
03:40	57.2	57.2	57.2	94	55.5	0	0	---	0.00	29.727 
03:45	57.2	57.2	57.2	94	55.5	0	0	---	0.00	29.728 
03:50	57.2	57.2	57.2	94	55.5	0	0	---	0.00	29.728 
03:55	57.0	57.0	57.0	94	55.3	0	0	---	0.00	29.728 
04:00	57.0	57.0	57.0	94	55.3	0	0	---	0.00	29.727 
04:05	57.0	57.0	57.0	94	55.3	0	0	---	0.00	29.727 
04:10	56.9	56.9	56.9	94	55.2	0	0	---	0.00	29.727 
04:15	56.7	56.7	56.7	94	55.0	0	0	---	0.00	29.728 
04:20	56.6	56.6	56.6	94	54.9	0	0	---	0.00	29.728 
04:25	56.5	56.5	56.5	94	54.8	0	0	---	0.00	29.728 
04:30	56.2	56.2	56.2	94	54.5	0	0	---	0.00	29.727 
04:35	56.2	56.2	56.2	95	54.8	0	0	---	0.00	29.727 
04:40	56.0	56.0	56.0	95	54.6	0	0	---	0.00	29.727 
04:45	56.0	56.0	56.0	95	54.6	0	0	---	0.00	29.728 
04:50	56.0	56.0	56.0	95	54.6	0	0	---	0.00	29.728 
04:55	56.0	56.0	56.0	95	54.6	0	0	---	0.00	29.728 
05:00	56.0	56.0	56.0	95	54.6	0	0	---	0.00	29.726 
05:05	56.0	56.0	56.0	95	54.6	0	0	---	0.00	29.726 
05:10	56.0	56.0	56.0	95	54.6	0	0	---	0.00	29.726 
05:15	55.9	55.9	55.9	95	54.5	0	0	---	0.00	29.729 
05:20	55.9	55.9	55.9	95	54.5	0	0	---	0.00	29.729 
05:25	55.7	55.7	55.7	95	54.3	0	0	---	0.00	29.729 
05:30	55.6	55.6	55.6	95	54.2	0	0	---	0.00	29.729 
05:35	55.6	55.6	55.6	96	54.5	0	0	---	0.00	29.729 
05:40	55.7	55.7	55.7	96	54.6	0	0	---	0.00	29.729 
05:45	56.0	56.0	56.0	96	54.9	0	0	---	0.00	29.726 
05:50	56.2	56.2	56.2	96	55.1	0	0	---	0.00	29.726 
05:55	56.2	56.2	56.2	96	55.1	0	0	---	0.00	29.726 
06:00	56.2	56.2	56.2	96	55.1	0	0	---	0.00	29.723 
06:05	56.0	56.0	56.0	96	54.9	0	0	---	0.00	29.723 
06:10	55.7	55.7	55.7	96	54.6	0	0	---	0.00	29.723 
06:15	55.6	55.6	55.6	96	54.5	0	0	---	0.00	29.725 
06:20	55.7	55.7	55.7	96	54.6	0	1	292	0.00	29.725 
06:25	56.0	56.0	56.0	96	54.9	0	0	---	0.00	29.725 
06:30	56.2	56.2	56.2	96	55.1	0	1	292	0.00	29.729 
06:35	56.2	56.2	56.2	96	55.1	0	1	292	0.00	29.729 
06:40	56.3	56.3	56.3	96	55.2	0	1	292	0.00	29.729 
06:45	56.2	56.2	56.2	96	55.1	0	1	292	0.00	29.726 
06:50	56.2	56.2	56.2	96	55.1	0	1	292	0.00	29.726 
06:55	56.2	56.2	56.2	96	55.1	0	1	292	0.00	29.726 
07:00	56.0	56.0	56.0	96	54.9	0	1	292	0.00	29.726 
07:05	55.9	55.9	55.9	96	54.8	0	1	292	0.00	29.726 
07:10	55.9	55.9	55.9	96	54.8	0	1	292	0.00	29.726 
07:15	55.7	55.7	55.7	96	54.6	0	1	292	0.00	29.733 
07:20	55.7	55.7	55.7	96	54.6	0	1	292	0.00	29.733 
07:25	55.7	55.7	55.7	96	54.6	0	0	---	0.00	29.733 
07:30	55.7	55.7	55.7	96	54.6	0	0	---	0.00	29.733 
07:35	55.7	55.7	55.7	96	54.6	0	1	292	0.00	29.733 
07:40	55.7	55.7	55.7	96	54.6	0	0	---	0.00	29.733 
07:45	55.9	55.9	55.9	96	54.8	0	1	292	0.00	29.737 
07:50	55.7	55.7	55.7	96	54.6	0	1	292	0.00	29.737 
07:55	55.7	55.7	55.7	96	54.6	0	1	292	0.00	29.737 
08:00	55.7	55.7	55.7	97	54.9	0	1	292	0.00	29.747 
08:05	55.6	55.6	55.6	96	54.5	0	1	292	0.00	29.747 
08:10	55.6	55.6	55.6	97	54.8	0	0	---	0.00	29.747 
08:15	55.6	55.6	55.6	97	54.8	0	0	---	0.00	29.752 
08:20	55.6	55.6	55.6	97	54.8	0	0	---	0.00	29.752 
08:25	55.7	55.7	55.7	97	54.9	0	1	292	0.00	29.752 
08:30	55.7	55.7	55.7	97	54.9	0	1	292	0.00	29.754 
08:35	55.9	55.9	55.9	97	55.1	0	1	292	0.00	29.754 
08:40	55.9	55.9	55.9	97	55.1	0	1	292	0.00	29.754 
08:45	55.9	55.9	55.9	97	55.1	0	3	292	0.00	29.754 
08:50	55.9	55.9	55.9	97	55.1	0	1	292	0.00	29.754 
08:55	56.0	56.0	56.0	97	55.2	0	1	292	0.00	29.754 
09:00	56.2	56.2	56.2	97	55.4	0	1	292	0.00	29.754 
09:05	56.3	56.3	56.3	97	55.5	0	1	292	0.00	29.754 
09:10	56.5	56.5	56.5	97	55.7	0	2	315	0.00	29.754 
09:15	56.7	56.7	56.7	97	55.9	0	1	315	0.00	29.751 
09:20	56.9	56.9	56.9	97	56.1	0	1	315	0.00	29.751 
09:25	57.0	57.0	57.0	97	56.2	0	1	315	0.00	29.751 
09:30	57.3	57.3	57.3	97	56.5	0	1	315	0.00	29.752 
09:35	57.5	57.5	57.5	97	56.7	0	1	315	0.00	29.752 
09:40	57.8	57.8	57.8	97	57.0	0	1	315	0.00	29.752 
09:45	58.1	58.1	58.1	97	57.3	0	1	315	0.00	29.750 
09:50	58.3	58.3	58.3	97	57.5	0	2	315	0.00	29.750 
09:55	58.3	58.3	58.3	97	57.5	0	1	315	0.00	29.750 
10:00	58.4	58.4	58.4	97	57.5	0	2	315	0.00	29.752 
10:05	58.4	58.4	58.4	97	57.5	1	4	315	0.00	29.752 
10:10	58.3	58.3	58.3	97	57.5	1	5	270	0.00	29.752 
10:15	58.6	58.6	58.6	97	57.7	1	3	338	0.00	29.752 
10:20	58.7	58.7	58.7	97	57.8	1	3	248	0.00	29.752 
10:25	58.9	58.9	58.9	96	57.8	0	1	270	0.00	29.752 
10:30	59.5	59.5	59.5	96	58.4	0	2	270	0.00	29.749 
10:35	60.4	60.4	60.4	96	59.3	0	1	270	0.00	29.749 
10:40	60.5	60.5	60.5	95	59.1	0	2	270	0.00	29.749 
10:45	61.2	61.2	61.2	94	59.5	0	2	270	0.00	29.748 
10:50	61.5	61.5	61.5	93	59.5	1	3	270	0.00	29.748 
10:55	62.3	62.3	62.3	91	59.6	1	2	270	0.00	29.748 
11:00	62.9	62.9	62.9	88	59.3	1	2	338	0.00	29.738 
11:05	63.5	63.5	63.5	86	59.2	0	2	315	0.00	29.738 
11:10	64.2	64.2	64.2	84	59.3	0	1	315	0.00	29.738 
11:15	64.7	64.7	64.7	81	58.7	1	3	315	0.00	29.733 
11:20	64.5	64.5	64.5	80	58.2	1	3	315	0.00	29.733 
11:25	64.8	64.8	64.8	80	58.5	1	3	315	0.00	29.733 
11:30	64.8	64.8	64.8	79	58.1	1	3	315	0.00	29.732 
11:35	65.3	65.3	65.3	78	58.3	1	2	315	0.00	29.732 
11:40	65.3	65.3	65.3	78	58.3	0	1	315	0.00	29.732 
11:45	65.5	65.5	65.5	76	57.7	0	2	315	0.00	29.729 
11:50	66.1	66.1	66.1	73	57.2	2	4	315	0.00	29.729 
11:55	66.4	66.4	66.4	73	57.5	1	3	292	0.00	29.729 
12:00	67.1	67.1	67.1	70	57.0	1	3	315	0.00	29.717 
12:05	67.6	67.6	67.6	68	56.7	2	5	270	0.00	29.717 
12:10	67.8	67.8	67.8	65	55.6	1	4	248	0.00	29.717 
12:15	67.9	67.9	67.9	67	56.5	1	2	248	0.00	29.709 
12:20	67.9	67.9	67.9	62	54.4	2	3	248	0.00	29.709 
12:25	67.9	67.9	67.9	62	54.4	1	4	248	0.00	29.709 
12:30	67.8	67.8	67.8	62	54.3	2	5	270	0.00	29.699 
12:35	68.1	68.1	68.1	64	55.5	1	4	270	0.00	29.699 
12:40	68.3	68.3	68.3	61	54.3	2	4	270	0.00	29.699 
12:45	68.6	68.6	68.6	60	54.1	2	4	292	0.00	29.697 
12:50	68.9	68.9	68.9	59	54.0	2	3	292	0.00	29.697 
12:55	69.1	69.1	69.1	58	53.7	2	4	270	0.00	29.697 
13:00	68.9	68.9	68.9	60	54.4	1	4	270	0.00	29.691 
13:05	68.9	68.9	68.9	60	54.4	1	4	270	0.00	29.691 
13:10	69.4	69.4	69.4	59	54.4	2	5	270	0.00	29.691 
13:15	70.1	70.1	70.1	58	54.6	1	5	225	0.00	29.690 
13:20	70.8	70.8	70.8	57	54.8	1	4	225	0.00	29.690 
13:25	71.1	71.1	71.1	57	55.1	1	5	270	0.00	29.690 
13:30	70.9	70.9	70.9	54	53.4	2	5	270	0.00	29.687 
13:35	70.6	70.6	70.6	53	52.6	2	4	270	0.00	29.687 
13:40	70.6	70.6	70.6	57	54.6	2	5	270	0.00	29.687 
13:45	70.4	70.4	70.4	56	53.9	1	3	248	0.00	29.679 
13:50	70.4	70.4	70.4	54	52.9	3	7	270	0.00	29.679 
13:55	69.9	69.9	69.9	56	53.5	2	7	270	0.00	29.679 
14:00	70.3	70.3	70.3	56	53.8	1	3	248	0.00	29.664 
14:05	71.1	71.1	71.1	57	55.1	1	3	248	0.00	29.664 
14:10	71.6	71.6	71.6	53	53.5	2	5	248	0.00	29.664 
14:15	71.8	71.8	71.8	54	54.2	1	4	248	0.00	29.651 
14:20	71.8	71.8	71.8	55	54.7	2	4	270	0.00	29.651 
14:25	72.3	72.3	72.3	54	54.7	1	5	270	0.00	29.651 
14:30	72.3	72.3	72.3	53	54.2	1	5	248	0.00	29.648 
14:35	72.5	72.5	72.5	51	53.3	1	4	292	0.00	29.648 
14:40	72.5	72.5	72.5	52	53.9	1	4	270	0.00	29.648 
14:45	72.7	72.7	72.7	53	54.6	1	4	270	0.00	29.633 
14:50	73.0	73.0	73.0	51	53.8	1	5	270	0.00	29.633 
14:55	73.2	73.2	73.2	50	53.4	2	4	270	0.00	29.633 
15:00	73.2	73.2	73.2	50	53.4	2	7	270	0.00	29.633 
15:05	72.3	72.3	72.3	50	52.6	3	5	270	0.00	29.633 
15:10	71.8	71.8	71.8	51	52.7	1	4	270	0.00	29.633 
15:15	72.0	72.0	72.0	50	52.3	1	4	270	0.00	29.634 
15:20	71.6	71.6	71.6	50	52.0	1	3	270	0.00	29.634 
15:25	71.8	71.8	71.8	53	53.7	1	3	292	0.00	29.634 
15:30	72.1	72.1	72.1	50	52.4	2	5	248	0.00	29.632 
15:35	72.0	72.0	72.0	52	53.4	1	3	248	0.00	29.632 
15:40	71.6	71.6	71.6	51	52.5	2	4	270	0.00	29.632 
15:45	71.5	71.5	71.5	51	52.4	2	5	270	0.00	29.624 
15:50	72.0	72.0	72.0	52	53.4	2	4	270	0.00	29.624 
15:55	71.6	71.6	71.6	51	52.5	2	4	270	0.00	29.624 
16:00	72.0	72.0	72.0	51	52.9	2	6	270	0.00	29.621 
16:05	72.0	72.0	72.0	51	52.9	2	5	270	0.00	29.621 
16:10	71.5	71.5	71.5	52	52.9	2	5	248	0.00	29.621 
16:15	71.3	71.3	71.3	52	52.8	3	6	248	0.00	29.619 
16:20	71.5	71.5	71.5	52	52.9	2	7	270	0.00	29.619 
16:25	71.3	71.3	71.3	52	52.8	2	7	270	0.00	29.619 
16:30	71.1	71.1	71.1	50	51.5	2	6	270	0.00	29.619 
16:35	71.1	71.1	71.1	53	53.1	2	5	248	0.00	29.619 
16:40	70.9	70.9	70.9	53	52.9	3	5	248	0.00	29.619 
16:45	70.9	70.9	70.9	52	52.4	2	3	270	0.00	29.617 
16:50	71.5	71.5	71.5	52	52.9	2	4	270	0.00	29.617 
16:55	71.5	71.5	71.5	53	53.5	2	5	248	0.00	29.617 
17:00	71.1	71.1	71.1	53	53.1	1	4	248	0.00	29.618 
17:05	70.9	70.9	70.9	53	52.9	2	5	270	0.00	29.618 
17:10	70.9	70.9	70.9	52	52.4	3	7	270	0.00	29.618 
17:15	70.9	70.9	70.9	53	52.9	2	7	270	0.00	29.611 
17:20	70.6	70.6	70.6	53	52.6	2	10	270	0.00	29.611 
17:25	70.3	70.3	70.3	55	53.4	1	5	270	0.00	29.611 
17:30	70.3	70.3	70.3	54	52.9	2	6	270	0.00	29.602 
17:35	70.4	70.4	70.4	55	53.4	1	5	248	0.00	29.602 
17:40	70.3	70.3	70.3	54	52.9	1	4	248	0.00	29.602 
17:45	70.1	70.1	70.1	54	52.7	2	6	292	0.00	29.600 
17:50	70.1	70.1	70.1	54	52.7	2	5	270	0.00	29.600 
17:55	70.1	70.1	70.1	54	52.7	1	3	270	0.00	29.600 
18:00	70.1	70.1	70.1	56	53.7	0	1	270	0.00	29.594 
18:05	70.1	70.1	70.1	56	53.7	1	4	270	0.00	29.594 
18:10	69.9	69.9	69.9	56	53.5	2	5	270	0.00	29.594 
18:15	69.6	69.6	69.6	56	53.2	1	4	270	0.00	29.591 
18:20	69.3	69.3	69.3	56	52.9	1	4	315	0.00	29.591 
18:25	69.1	69.1	69.1	56	52.7	1	4	270	0.00	29.591 
18:30	68.9	68.9	68.9	56	52.5	1	4	270	0.00	29.588 
18:35	68.8	68.8	68.8	56	52.5	1	4	270	0.00	29.588 
18:40	68.8	68.8	68.8	58	53.4	1	4	315	0.00	29.588 
18:45	68.6	68.6	68.6	57	52.7	2	6	248	0.00	29.578 
18:50	68.3	68.3	68.3	57	52.5	2	7	270	0.00	29.578 
18:55	68.1	68.1	68.1	58	52.8	1	5	248	0.00	29.578 
19:00	68.1	68.1	68.1	58	52.8	2	5	270	0.00	29.583 
19:05	67.9	67.9	67.9	58	52.6	1	3	270	0.00	29.583 
19:10	67.6	67.6	67.6	58	52.3	1	3	248	0.00	29.583 
19:15	67.4	67.4	67.4	58	52.1	2	6	248	0.00	29.586 
19:20	67.3	67.3	67.3	58	52.0	1	3	225	0.00	29.586 
19:25	66.9	66.9	66.9	59	52.1	1	5	270	0.00	29.586 
19:30	66.8	66.8	66.8	60	52.5	0	3	248	0.00	29.588 
19:35	66.6	66.6	66.6	60	52.3	1	5	248	0.00	29.588 
19:40	66.4	66.4	66.4	61	52.5	0	2	248	0.00	29.588 
19:45	66.0	66.0	66.0	62	52.6	0	1	270	0.00	29.578 
19:50	65.6	65.6	65.6	62	52.2	0	2	225	0.00	29.578 
19:55	65.5	65.5	65.5	63	52.6	0	4	225	0.00	29.578 
20:00	65.5	65.5	65.5	63	52.6	1	4	248	0.00	29.575 
20:05	65.3	65.3	65.3	63	52.4	0	3	248	0.00	29.575 
20:10	65.0	65.0	65.0	63	52.1	1	3	270	0.00	29.575 
20:15	65.0	65.0	65.0	64	52.5	1	3	248	0.00	29.579 
20:20	65.0	65.0	65.0	64	52.5	1	5	68	0.00	29.579 
20:25	64.8	64.8	64.8	64	52.3	0	3	292	0.00	29.579 
20:30	64.5	64.5	64.5	65	52.5	0	4	292	0.00	29.585 
20:35	64.3	64.3	64.3	65	52.3	1	6	248	0.00	29.585 
20:40	64.3	64.3	64.3	66	52.7	0	3	270	0.00	29.585 
20:45	64.2	64.2	64.2	66	52.6	1	3	90	0.00	29.558 
20:50	64.0	64.0	64.0	66	52.4	0	3	112	0.00	29.558 
20:55	63.9	63.9	63.9	67	52.7	0	2	248	0.00	29.558 
21:00	63.9	63.9	63.9	67	52.7	1	3	248	0.00	29.590 
21:05	63.9	63.9	63.9	67	52.7	0	3	248	0.00	29.590 
21:10	63.7	63.7	63.7	68	52.9	0	2	315	0.00	29.590 
21:15	63.5	63.5	63.5	68	52.7	0	3	225	0.00	29.584 
21:20	63.2	63.2	63.2	69	52.9	0	3	225	0.00	29.584 
21:25	63.1	63.1	63.1	69	52.8	0	1	225	0.00	29.584 
21:30	62.9	62.9	62.9	70	53.0	0	0	---	0.00	29.572 
21:35	62.6	62.6	62.6	70	52.7	0	0	---	0.00	29.572 
21:40	62.4	62.4	62.4	71	52.9	0	0	---	0.00	29.572 
21:45	62.3	62.3	62.3	71	52.8	0	0	---	0.00	29.563 
21:50	62.1	62.1	62.1	72	53.0	0	0	---	0.00	29.563 
21:55	62.0	62.0	62.0	72	52.9	0	0	---	0.00	29.563 
22:00	61.8	61.8	61.8	73	53.0	0	0	---	0.00	29.554 
22:05	61.6	61.6	61.6	73	52.9	0	0	---	0.00	29.554 
22:10	61.5	61.5	61.5	74	53.1	0	2	112	0.00	29.554 
22:15	61.5	61.5	61.5	74	53.1	0	1	112	0.00	29.543 
22:20	61.3	61.3	61.3	74	52.9	0	3	112	0.00	29.543 
22:25	61.3	61.3	61.3	75	53.3	0	4	270	0.00	29.543 
22:30	61.3	61.3	61.3	75	53.3	0	3	135	0.00	29.543 
22:35	61.2	61.2	61.2	76	53.6	0	1	248	0.00	29.543 
22:40	61.0	61.0	61.0	77	53.7	0	1	248	0.00	29.543 
22:45	61.0	61.0	61.0	77	53.7	0	3	225	0.00	29.524 
22:50	61.0	61.0	61.0	77	53.7	0	1	68	0.00	29.524 
22:55	61.0	61.0	61.0	78	54.1	1	7	68	0.00	29.524 
23:00	61.0	61.0	61.0	78	54.1	0	1	112	0.00	29.508 
23:05	61.0	61.0	61.0	79	54.4	1	4	90	0.00	29.508 
23:10	61.0	61.0	61.0	79	54.4	1	3	45	0.00	29.508 
23:15	61.0	61.0	61.0	79	54.4	0	2	0	0.00	29.493 
23:20	61.0	61.0	61.0	80	54.8	0	2	0	0.00	29.493 
23:25	61.0	61.0	61.0	80	54.8	0	2	338	0.00	29.493 
23:30	60.9	60.9	60.9	81	55.0	0	3	338	0.00	29.482 
23:35	60.9	60.9	60.9	81	55.0	1	5	68	0.00	29.482 
23:40	61.0	61.0	61.0	81	55.1	1	4	90	0.00	29.482 
23:45	61.0	61.0	61.0	81	55.1	1	5	90	0.00	29.461 
23:50	61.0	61.0	61.0	81	55.1	1	3	90	0.00	29.461 
23:55	60.9	60.9	60.9	81	55.0	1	3	90	0.00	29.461 

CoCoRaHS
IN-AL-39
A2 Web Hosting
Creative Commons License
GoDaddy
search engine by freefind advanced

loaded 2018-11-22 05:40:44 • last modified 2010-11-18 10:43:29
Privacy PolicyDisclaimer
• wx.awcolley.com is powered by PmWiki v.2002016 •
• all content (unless otherwise noted) © 2018 A W Colley